sensor_id;sensor_type;location;lat;lon;timestamp;P1;durP1;ratioP1;P2;durP2;ratioP2
62740;SDS011;48790;55.656;37.702;2022-09-29T00:00:26;25.52;;;13.23;;
62740;SDS011;48790;55.656;37.702;2022-09-29T00:02:52;30.65;;;12.60;;
62740;SDS011;48790;55.656;37.702;2022-09-29T00:05:18;25.63;;;12.18;;
62740;SDS011;48790;55.656;37.702;2022-09-29T00:07:46;28.65;;;12.68;;
62740;SDS011;48790;55.656;37.702;2022-09-29T00:10:12;20.13;;;10.88;;
62740;SDS011;48790;55.656;37.702;2022-09-29T00:12:38;20.35;;;12.02;;
62740;SDS011;48790;55.656;37.702;2022-09-29T00:15:04;19.70;;;11.02;;
62740;SDS011;48790;55.656;37.702;2022-09-29T00:17:30;17.58;;;10.43;;
62740;SDS011;48790;55.656;37.702;2022-09-29T00:19:57;18.83;;;10.07;;
62740;SDS011;48790;55.656;37.702;2022-09-29T00:22:22;20.27;;;10.15;;
62740;SDS011;48790;55.656;37.702;2022-09-29T00:24:48;22.23;;;10.30;;
62740;SDS011;48790;55.656;37.702;2022-09-29T00:27:15;25.27;;;10.88;;
62740;SDS011;48790;55.656;37.702;2022-09-29T00:29:41;27.67;;;11.35;;
62740;SDS011;48790;55.656;37.702;2022-09-29T00:32:08;18.58;;;9.45;;
62740;SDS011;48790;55.656;37.702;2022-09-29T00:34:35;20.85;;;11.00;;
62740;SDS011;48790;55.656;37.702;2022-09-29T00:37:01;16.92;;;9.02;;
62740;SDS011;48790;55.656;37.702;2022-09-29T00:39:27;18.85;;;9.25;;
62740;SDS011;48790;55.656;37.702;2022-09-29T00:41:52;23.95;;;9.50;;
62740;SDS011;48790;55.656;37.702;2022-09-29T00:49:14;29.92;;;10.48;;
62740;SDS011;48790;55.656;37.702;2022-09-29T00:54:08;37.28;;;9.02;;
62740;SDS011;48790;55.656;37.702;2022-09-29T00:56:35;30.48;;;9.18;;
62740;SDS011;48790;55.656;37.702;2022-09-29T00:59:04;21.35;;;9.30;;
62740;SDS011;48790;55.656;37.702;2022-09-29T01:01:31;22.20;;;9.57;;
62740;SDS011;48790;55.656;37.702;2022-09-29T01:04:01;26.92;;;9.07;;
62740;SDS011;48790;55.656;37.702;2022-09-29T01:06:30;19.58;;;8.77;;
62740;SDS011;48790;55.656;37.702;2022-09-29T01:11:23;21.83;;;9.07;;
62740;SDS011;48790;55.656;37.702;2022-09-29T01:13:49;19.10;;;8.80;;
62740;SDS011;48790;55.656;37.702;2022-09-29T01:16:15;17.17;;;8.57;;
62740;SDS011;48790;55.656;37.702;2022-09-29T01:18:41;25.92;;;8.45;;
62740;SDS011;48790;55.656;37.702;2022-09-29T01:31:23;18.00;;;9.80;;
62740;SDS011;48790;55.656;37.702;2022-09-29T01:39:07;16.98;;;8.70;;
62740;SDS011;48790;55.656;37.702;2022-09-29T01:47:15;17.98;;;9.02;;
62740;SDS011;48790;55.656;37.702;2022-09-29T01:49:43;18.25;;;8.82;;
62740;SDS011;48790;55.656;37.702;2022-09-29T01:52:17;16.52;;;8.98;;
62740;SDS011;48790;55.656;37.702;2022-09-29T01:57:12;20.83;;;8.27;;
62740;SDS011;48790;55.656;37.702;2022-09-29T01:59:42;16.25;;;8.73;;
62740;SDS011;48790;55.656;37.702;2022-09-29T02:02:09;16.42;;;9.27;;
62740;SDS011;48790;55.656;37.702;2022-09-29T02:04:39;16.13;;;9.15;;
62740;SDS011;48790;55.656;37.702;2022-09-29T02:07:07;18.90;;;9.13;;
62740;SDS011;48790;55.656;37.702;2022-09-29T02:09:35;17.88;;;9.07;;
62740;SDS011;48790;55.656;37.702;2022-09-29T02:12:03;21.83;;;8.63;;
62740;SDS011;48790;55.656;37.702;2022-09-29T02:14:31;16.08;;;9.27;;
62740;SDS011;48790;55.656;37.702;2022-09-29T02:17:10;17.50;;;9.50;;
62740;SDS011;48790;55.656;37.702;2022-09-29T02:19:37;19.40;;;9.73;;
62740;SDS011;48790;55.656;37.702;2022-09-29T02:22:05;20.45;;;9.48;;
62740;SDS011;48790;55.656;37.702;2022-09-29T02:24:30;19.20;;;8.88;;
62740;SDS011;48790;55.656;37.702;2022-09-29T02:26:56;19.90;;;10.25;;
62740;SDS011;48790;55.656;37.702;2022-09-29T02:29:22;18.40;;;9.73;;
62740;SDS011;48790;55.656;37.702;2022-09-29T02:31:48;18.88;;;9.95;;
62740;SDS011;48790;55.656;37.702;2022-09-29T02:34:16;18.20;;;9.93;;
62740;SDS011;48790;55.656;37.702;2022-09-29T02:51:56;20.58;;;10.43;;
62740;SDS011;48790;55.656;37.702;2022-09-29T03:00:03;21.77;;;11.05;;
62740;SDS011;48790;55.656;37.702;2022-09-29T03:02:33;25.27;;;10.60;;
62740;SDS011;48790;55.656;37.702;2022-09-29T03:05:00;19.13;;;10.27;;
62740;SDS011;48790;55.656;37.702;2022-09-29T03:07:28;22.17;;;11.02;;
62740;SDS011;48790;55.656;37.702;2022-09-29T03:09:53;28.13;;;12.77;;
62740;SDS011;48790;55.656;37.702;2022-09-29T03:12:19;23.67;;;11.30;;
62740;SDS011;48790;55.656;37.702;2022-09-29T03:14:45;22.00;;;10.88;;
62740;SDS011;48790;55.656;37.702;2022-09-29T03:17:11;19.98;;;11.25;;
62740;SDS011;48790;55.656;37.702;2022-09-29T03:19:37;28.55;;;11.13;;
62740;SDS011;48790;55.656;37.702;2022-09-29T03:22:03;21.88;;;10.60;;
62740;SDS011;48790;55.656;37.702;2022-09-29T03:24:29;26.42;;;11.30;;
62740;SDS011;48790;55.656;37.702;2022-09-29T03:26:56;19.40;;;11.07;;
62740;SDS011;48790;55.656;37.702;2022-09-29T03:29:21;19.73;;;11.35;;
62740;SDS011;48790;55.656;37.702;2022-09-29T03:31:48;25.45;;;11.85;;
62740;SDS011;48790;55.656;37.702;2022-09-29T03:34:14;22.90;;;11.35;;
62740;SDS011;48790;55.656;37.702;2022-09-29T03:36:39;27.70;;;11.43;;
62740;SDS011;48790;55.656;37.702;2022-09-29T03:39:06;20.33;;;11.70;;
62740;SDS011;48790;55.656;37.702;2022-09-29T03:41:32;23.50;;;11.88;;
62740;SDS011;48790;55.656;37.702;2022-09-29T03:43:57;24.58;;;12.02;;
62740;SDS011;48790;55.656;37.702;2022-09-29T03:46:24;23.00;;;11.93;;
62740;SDS011;48790;55.656;37.702;2022-09-29T03:48:50;30.35;;;12.45;;
62740;SDS011;48790;55.656;37.702;2022-09-29T03:51:16;25.70;;;12.95;;
62740;SDS011;48790;55.656;37.702;2022-09-29T03:53:43;30.77;;;12.68;;
62740;SDS011;48790;55.656;37.702;2022-09-29T03:56:09;34.38;;;12.98;;
62740;SDS011;48790;55.656;37.702;2022-09-29T03:58:34;28.75;;;13.10;;
62740;SDS011;48790;55.656;37.702;2022-09-29T04:01:03;22.20;;;13.25;;
62740;SDS011;48790;55.656;37.702;2022-09-29T04:03:29;29.33;;;13.38;;
62740;SDS011;48790;55.656;37.702;2022-09-29T04:05:54;30.15;;;13.05;;
62740;SDS011;48790;55.656;37.702;2022-09-29T04:08:20;26.98;;;13.52;;
62740;SDS011;48790;55.656;37.702;2022-09-29T04:10:46;25.63;;;13.95;;
62740;SDS011;48790;55.656;37.702;2022-09-29T04:13:12;32.90;;;15.10;;
62740;SDS011;48790;55.656;37.702;2022-09-29T04:15:38;25.80;;;14.13;;
62740;SDS011;48790;55.656;37.702;2022-09-29T04:18:04;26.27;;;13.98;;
62740;SDS011;48790;55.656;37.702;2022-09-29T04:20:30;31.45;;;14.73;;
62740;SDS011;48790;55.656;37.702;2022-09-29T04:22:56;30.25;;;13.82;;
62740;SDS011;48790;55.656;37.702;2022-09-29T04:25:21;30.23;;;14.05;;
62740;SDS011;48790;55.656;37.702;2022-09-29T04:27:48;30.85;;;14.75;;
62740;SDS011;48790;55.656;37.702;2022-09-29T04:30:14;30.63;;;14.65;;
62740;SDS011;48790;55.656;37.702;2022-09-29T04:32:41;30.67;;;14.25;;
62740;SDS011;48790;55.656;37.702;2022-09-29T04:35:07;36.85;;;15.30;;
62740;SDS011;48790;55.656;37.702;2022-09-29T04:37:33;36.60;;;16.95;;
62740;SDS011;48790;55.656;37.702;2022-09-29T04:39:59;30.50;;;14.35;;
62740;SDS011;48790;55.656;37.702;2022-09-29T04:42:25;29.65;;;14.07;;
62740;SDS011;48790;55.656;37.702;2022-09-29T04:44:50;27.10;;;13.63;;
62740;SDS011;48790;55.656;37.702;2022-09-29T04:47:16;26.17;;;12.70;;
62740;SDS011;48790;55.656;37.702;2022-09-29T04:49:43;27.58;;;13.15;;
62740;SDS011;48790;55.656;37.702;2022-09-29T04:52:12;35.70;;;14.05;;
62740;SDS011;48790;55.656;37.702;2022-09-29T04:54:39;23.42;;;12.43;;
62740;SDS011;48790;55.656;37.702;2022-09-29T04:57:05;24.65;;;12.07;;
62740;SDS011;48790;55.656;37.702;2022-09-29T04:59:31;28.48;;;12.77;;
62740;SDS011;48790;55.656;37.702;2022-09-29T05:01:57;23.88;;;12.23;;
62740;SDS011;48790;55.656;37.702;2022-09-29T05:04:23;30.20;;;12.68;;
62740;SDS011;48790;55.656;37.702;2022-09-29T05:06:48;24.73;;;12.23;;
62740;SDS011;48790;55.656;37.702;2022-09-29T05:09:15;33.63;;;12.82;;
62740;SDS011;48790;55.656;37.702;2022-09-29T05:11:41;21.95;;;12.40;;
62740;SDS011;48790;55.656;37.702;2022-09-29T05:14:06;25.10;;;12.35;;
62740;SDS011;48790;55.656;37.702;2022-09-29T05:16:32;21.38;;;11.65;;
62740;SDS011;48790;55.656;37.702;2022-09-29T05:18:58;23.58;;;12.82;;
62740;SDS011;48790;55.656;37.702;2022-09-29T05:21:23;30.58;;;13.38;;
62740;SDS011;48790;55.656;37.702;2022-09-29T05:23:49;21.25;;;11.45;;
62740;SDS011;48790;55.656;37.702;2022-09-29T05:26:15;22.33;;;12.05;;
62740;SDS011;48790;55.656;37.702;2022-09-29T05:28:44;24.95;;;11.40;;
62740;SDS011;48790;55.656;37.702;2022-09-29T05:31:11;26.42;;;11.52;;
62740;SDS011;48790;55.656;37.702;2022-09-29T05:33:37;20.40;;;11.23;;
62740;SDS011;48790;55.656;37.702;2022-09-29T05:36:04;18.52;;;10.88;;
62740;SDS011;48790;55.656;37.702;2022-09-29T05:38:31;30.52;;;12.57;;
62740;SDS011;48790;55.656;37.702;2022-09-29T05:40:57;29.45;;;12.65;;
62740;SDS011;48790;55.656;37.702;2022-09-29T05:43:23;23.27;;;13.20;;
62740;SDS011;48790;55.656;37.702;2022-09-29T05:45:50;30.05;;;13.10;;
62740;SDS011;48790;55.656;37.702;2022-09-29T05:48:16;25.35;;;13.70;;
62740;SDS011;48790;55.656;37.702;2022-09-29T05:50:44;27.08;;;13.10;;
62740;SDS011;48790;55.656;37.702;2022-09-29T05:53:10;28.30;;;14.32;;
62740;SDS011;48790;55.656;37.702;2022-09-29T05:55:36;26.95;;;13.43;;
62740;SDS011;48790;55.656;37.702;2022-09-29T05:58:02;31.90;;;15.55;;
62740;SDS011;48790;55.656;37.702;2022-09-29T06:00:28;29.30;;;15.13;;
62740;SDS011;48790;55.656;37.702;2022-09-29T06:02:59;32.15;;;15.65;;
62740;SDS011;48790;55.656;37.702;2022-09-29T06:05:25;34.22;;;16.13;;
62740;SDS011;48790;55.656;37.702;2022-09-29T06:07:52;37.72;;;15.60;;
62740;SDS011;48790;55.656;37.702;2022-09-29T06:10:17;36.05;;;17.08;;
62740;SDS011;48790;55.656;37.702;2022-09-29T06:12:43;35.63;;;16.63;;
62740;SDS011;48790;55.656;37.702;2022-09-29T06:15:09;37.67;;;17.45;;
62740;SDS011;48790;55.656;37.702;2022-09-29T06:17:36;42.95;;;17.77;;
62740;SDS011;48790;55.656;37.702;2022-09-29T06:20:02;43.38;;;18.30;;
62740;SDS011;48790;55.656;37.702;2022-09-29T06:22:29;42.30;;;18.88;;
62740;SDS011;48790;55.656;37.702;2022-09-29T06:24:55;38.72;;;17.70;;
62740;SDS011;48790;55.656;37.702;2022-09-29T06:27:21;40.22;;;19.05;;
62740;SDS011;48790;55.656;37.702;2022-09-29T06:29:47;42.08;;;18.42;;
62740;SDS011;48790;55.656;37.702;2022-09-29T06:32:13;53.90;;;19.60;;
62740;SDS011;48790;55.656;37.702;2022-09-29T06:34:39;55.58;;;21.35;;
62740;SDS011;48790;55.656;37.702;2022-09-29T06:37:25;50.28;;;19.42;;
62740;SDS011;48790;55.656;37.702;2022-09-29T06:40:02;41.80;;;16.85;;
62740;SDS011;48790;55.656;37.702;2022-09-29T06:42:28;40.03;;;16.90;;
62740;SDS011;48790;55.656;37.702;2022-09-29T06:44:55;39.17;;;17.02;;
62740;SDS011;48790;55.656;37.702;2022-09-29T06:47:22;39.30;;;16.63;;
62740;SDS011;48790;55.656;37.702;2022-09-29T06:49:48;42.10;;;19.10;;
62740;SDS011;48790;55.656;37.702;2022-09-29T06:52:15;44.85;;;18.73;;
62740;SDS011;48790;55.656;37.702;2022-09-29T06:54:40;51.83;;;18.58;;
62740;SDS011;48790;55.656;37.702;2022-09-29T06:57:06;40.58;;;19.33;;
62740;SDS011;48790;55.656;37.702;2022-09-29T06:59:32;44.38;;;19.77;;
62740;SDS011;48790;55.656;37.702;2022-09-29T07:01:57;52.30;;;21.25;;
62740;SDS011;48790;55.656;37.702;2022-09-29T07:04:23;48.00;;;19.98;;
62740;SDS011;48790;55.656;37.702;2022-09-29T07:06:49;61.75;;;20.67;;
62740;SDS011;48790;55.656;37.702;2022-09-29T07:09:17;51.10;;;19.80;;
62740;SDS011;48790;55.656;37.702;2022-09-29T07:11:44;52.13;;;21.25;;
62740;SDS011;48790;55.656;37.702;2022-09-29T07:14:13;49.40;;;20.40;;
62740;SDS011;48790;55.656;37.702;2022-09-29T07:16:39;58.42;;;21.13;;
62740;SDS011;48790;55.656;37.702;2022-09-29T07:19:05;62.22;;;20.10;;
62740;SDS011;48790;55.656;37.702;2022-09-29T07:21:31;61.10;;;23.45;;
62740;SDS011;48790;55.656;37.702;2022-09-29T07:23:57;50.55;;;22.33;;
62740;SDS011;48790;55.656;37.702;2022-09-29T07:26:23;71.88;;;24.65;;
62740;SDS011;48790;55.656;37.702;2022-09-29T07:28:48;68.35;;;25.67;;
62740;SDS011;48790;55.656;37.702;2022-09-29T07:31:15;72.63;;;25.45;;
62740;SDS011;48790;55.656;37.702;2022-09-29T07:33:42;67.30;;;25.48;;
62740;SDS011;48790;55.656;37.702;2022-09-29T07:36:09;72.95;;;27.13;;
62740;SDS011;48790;55.656;37.702;2022-09-29T07:38:35;66.20;;;23.67;;
62740;SDS011;48790;55.656;37.702;2022-09-29T07:41:02;65.82;;;26.23;;
62740;SDS011;48790;55.656;37.702;2022-09-29T07:43:28;69.55;;;24.95;;
62740;SDS011;48790;55.656;37.702;2022-09-29T07:45:54;59.92;;;23.63;;
62740;SDS011;48790;55.656;37.702;2022-09-29T07:48:20;58.78;;;24.08;;
62740;SDS011;48790;55.656;37.702;2022-09-29T07:50:46;67.70;;;24.63;;
62740;SDS011;48790;55.656;37.702;2022-09-29T07:53:13;60.00;;;23.52;;
62740;SDS011;48790;55.656;37.702;2022-09-29T07:55:41;64.95;;;21.92;;
62740;SDS011;48790;55.656;37.702;2022-09-29T07:58:07;59.92;;;23.27;;
62740;SDS011;48790;55.656;37.702;2022-09-29T08:00:33;59.47;;;21.65;;
62740;SDS011;48790;55.656;37.702;2022-09-29T08:03:04;61.60;;;22.95;;
62740;SDS011;48790;55.656;37.702;2022-09-29T08:05:31;56.95;;;21.35;;
62740;SDS011;48790;55.656;37.702;2022-09-29T08:08:03;63.00;;;22.42;;
62740;SDS011;48790;55.656;37.702;2022-09-29T08:10:30;60.03;;;21.63;;
62740;SDS011;48790;55.656;37.702;2022-09-29T08:12:56;61.15;;;21.75;;
62740;SDS011;48790;55.656;37.702;2022-09-29T08:15:24;60.97;;;21.63;;
62740;SDS011;48790;55.656;37.702;2022-09-29T08:17:54;45.78;;;20.55;;
62740;SDS011;48790;55.656;37.702;2022-09-29T08:20:20;59.80;;;20.85;;
62740;SDS011;48790;55.656;37.702;2022-09-29T08:22:46;49.05;;;21.75;;
62740;SDS011;48790;55.656;37.702;2022-09-29T08:25:13;59.72;;;21.30;;
62740;SDS011;48790;55.656;37.702;2022-09-29T08:27:39;60.15;;;21.50;;
62740;SDS011;48790;55.656;37.702;2022-09-29T08:30:05;52.90;;;20.75;;
62740;SDS011;48790;55.656;37.702;2022-09-29T08:32:31;47.72;;;20.30;;
62740;SDS011;48790;55.656;37.702;2022-09-29T08:34:57;50.30;;;20.92;;
62740;SDS011;48790;55.656;37.702;2022-09-29T08:37:23;48.40;;;20.83;;
62740;SDS011;48790;55.656;37.702;2022-09-29T08:39:49;52.33;;;21.10;;
62740;SDS011;48790;55.656;37.702;2022-09-29T08:42:20;48.83;;;21.08;;
62740;SDS011;48790;55.656;37.702;2022-09-29T08:44:54;58.67;;;21.70;;
62740;SDS011;48790;55.656;37.702;2022-09-29T08:49:55;51.75;;;19.90;;
62740;SDS011;48790;55.656;37.702;2022-09-29T08:52:28;55.20;;;20.75;;
62740;SDS011;48790;55.656;37.702;2022-09-29T08:54:57;53.83;;;21.77;;
62740;SDS011;48790;55.656;37.702;2022-09-29T08:57:25;61.45;;;20.83;;
62740;SDS011;48790;55.656;37.702;2022-09-29T08:59:54;57.00;;;21.55;;
62740;SDS011;48790;55.656;37.702;2022-09-29T09:07:54;43.13;;;20.55;;
62740;SDS011;48790;55.656;37.702;2022-09-29T09:17:51;61.65;;;22.70;;
62740;SDS011;48790;55.656;37.702;2022-09-29T09:23:05;58.63;;;22.70;;
62740;SDS011;48790;55.656;37.702;2022-09-29T09:25:35;49.13;;;21.17;;
62740;SDS011;48790;55.656;37.702;2022-09-29T09:28:05;54.10;;;21.95;;
62740;SDS011;48790;55.656;37.702;2022-09-29T09:30:37;56.53;;;22.27;;
62740;SDS011;48790;55.656;37.702;2022-09-29T09:33:05;58.47;;;22.15;;
62740;SDS011;48790;55.656;37.702;2022-09-29T09:35:45;50.83;;;22.33;;
62740;SDS011;48790;55.656;37.702;2022-09-29T09:38:15;54.05;;;21.98;;
62740;SDS011;48790;55.656;37.702;2022-09-29T09:40:47;52.17;;;22.65;;
62740;SDS011;48790;55.656;37.702;2022-09-29T09:43:57;50.75;;;22.30;;
62740;SDS011;48790;55.656;37.702;2022-09-29T09:46:07;55.25;;;23.80;;
62740;SDS011;48790;55.656;37.702;2022-09-29T09:48:37;60.00;;;25.58;;
62740;SDS011;48790;55.656;37.702;2022-09-29T09:51:15;64.28;;;25.48;;
62740;SDS011;48790;55.656;37.702;2022-09-29T09:53:47;65.22;;;24.92;;
62740;SDS011;48790;55.656;37.702;2022-09-29T09:59:06;59.92;;;25.38;;
62740;SDS011;48790;55.656;37.702;2022-09-29T10:01:34;68.07;;;26.17;;
62740;SDS011;48790;55.656;37.702;2022-09-29T10:04:00;59.97;;;26.38;;
62740;SDS011;48790;55.656;37.702;2022-09-29T10:06:26;59.20;;;26.70;;
62740;SDS011;48790;55.656;37.702;2022-09-29T10:08:52;63.47;;;26.20;;
62740;SDS011;48790;55.656;37.702;2022-09-29T10:13:47;59.53;;;25.27;;
62740;SDS011;48790;55.656;37.702;2022-09-29T10:16:16;69.75;;;25.63;;
62740;SDS011;48790;55.656;37.702;2022-09-29T10:23:55;61.13;;;22.88;;
62740;SDS011;48790;55.656;37.702;2022-09-29T10:26:31;58.17;;;23.42;;
62740;SDS011;48790;55.656;37.702;2022-09-29T10:28:58;53.95;;;22.60;;
62740;SDS011;48790;55.656;37.702;2022-09-29T10:31:30;54.95;;;21.13;;
62740;SDS011;48790;55.656;37.702;2022-09-29T10:36:28;58.63;;;21.65;;
62740;SDS011;48790;55.656;37.702;2022-09-29T10:38:54;53.55;;;21.45;;
62740;SDS011;48790;55.656;37.702;2022-09-29T10:41:21;54.75;;;21.65;;
62740;SDS011;48790;55.656;37.702;2022-09-29T10:43:49;55.05;;;20.73;;
62740;SDS011;48790;55.656;37.702;2022-09-29T10:49:15;46.17;;;19.63;;
62740;SDS011;48790;55.656;37.702;2022-09-29T10:51:46;56.78;;;20.77;;
62740;SDS011;48790;55.656;37.702;2022-09-29T10:54:13;55.28;;;20.58;;
62740;SDS011;48790;55.656;37.702;2022-09-29T10:56:44;58.60;;;21.17;;
62740;SDS011;48790;55.656;37.702;2022-09-29T10:59:11;63.70;;;21.92;;
62740;SDS011;48790;55.656;37.702;2022-09-29T11:01:42;48.28;;;20.25;;
62740;SDS011;48790;55.656;37.702;2022-09-29T11:04:17;58.60;;;18.52;;
62740;SDS011;48790;55.656;37.702;2022-09-29T11:06:44;44.33;;;18.00;;
62740;SDS011;48790;55.656;37.702;2022-09-29T11:09:25;49.80;;;18.27;;
62740;SDS011;48790;55.656;37.702;2022-09-29T11:11:52;48.17;;;18.70;;
62740;SDS011;48790;55.656;37.702;2022-09-29T11:14:25;60.65;;;18.65;;
62740;SDS011;48790;55.656;37.702;2022-09-29T11:16:52;43.78;;;18.38;;
62740;SDS011;48790;55.656;37.702;2022-09-29T11:19:20;46.60;;;17.77;;
62740;SDS011;48790;55.656;37.702;2022-09-29T11:31:59;42.60;;;17.70;;
62740;SDS011;48790;55.656;37.702;2022-09-29T11:55:12;32.92;;;16.20;;
62740;SDS011;48790;55.656;37.702;2022-09-29T12:00:19;34.28;;;15.77;;
62740;SDS011;48790;55.656;37.702;2022-09-29T12:05:20;37.97;;;15.45;;
62740;SDS011;48790;55.656;37.702;2022-09-29T12:08:04;37.53;;;15.88;;
62740;SDS011;48790;55.656;37.702;2022-09-29T12:15:59;39.20;;;15.25;;
62740;SDS011;48790;55.656;37.702;2022-09-29T12:18:34;35.92;;;14.73;;
62740;SDS011;48790;55.656;37.702;2022-09-29T12:21:03;39.00;;;16.05;;
62740;SDS011;48790;55.656;37.702;2022-09-29T12:23:31;39.17;;;15.02;;
62740;SDS011;48790;55.656;37.702;2022-09-29T12:26:09;32.08;;;14.85;;
62740;SDS011;48790;55.656;37.702;2022-09-29T12:28:41;34.03;;;14.73;;
62740;SDS011;48790;55.656;37.702;2022-09-29T12:31:13;31.13;;;14.18;;
62740;SDS011;48790;55.656;37.702;2022-09-29T12:33:46;32.38;;;13.70;;
62740;SDS011;48790;55.656;37.702;2022-09-29T12:36:24;29.40;;;14.05;;
62740;SDS011;48790;55.656;37.702;2022-09-29T12:39:12;32.35;;;14.00;;
62740;SDS011;48790;55.656;37.702;2022-09-29T12:41:43;31.95;;;14.50;;
62740;SDS011;48790;55.656;37.702;2022-09-29T12:46:42;37.13;;;15.90;;
62740;SDS011;48790;55.656;37.702;2022-09-29T12:52:09;31.83;;;14.07;;
62740;SDS011;48790;55.656;37.702;2022-09-29T12:54:46;33.75;;;13.80;;
62740;SDS011;48790;55.656;37.702;2022-09-29T12:57:14;31.70;;;14.35;;
62740;SDS011;48790;55.656;37.702;2022-09-29T12:59:57;27.10;;;13.38;;
62740;SDS011;48790;55.656;37.702;2022-09-29T13:13:26;37.10;;;14.73;;
62740;SDS011;48790;55.656;37.702;2022-09-29T13:20:33;33.65;;;14.82;;
62740;SDS011;48790;55.656;37.702;2022-09-29T13:23:16;35.72;;;15.93;;
62740;SDS011;48790;55.656;37.702;2022-09-29T13:28:47;32.78;;;14.20;;
62740;SDS011;48790;55.656;37.702;2022-09-29T13:31:14;33.08;;;15.02;;
62740;SDS011;48790;55.656;37.702;2022-09-29T13:33:45;31.73;;;14.23;;
62740;SDS011;48790;55.656;37.702;2022-09-29T13:36:20;39.13;;;14.88;;
62740;SDS011;48790;55.656;37.702;2022-09-29T13:38:46;31.65;;;15.02;;
62740;SDS011;48790;55.656;37.702;2022-09-29T13:46:45;36.90;;;16.17;;
62740;SDS011;48790;55.656;37.702;2022-09-29T13:51:44;32.55;;;15.02;;
62740;SDS011;48790;55.656;37.702;2022-09-29T13:56:39;74.40;;;28.38;;
62740;SDS011;48790;55.656;37.702;2022-09-29T13:59:10;64.18;;;19.20;;
62740;SDS011;48790;55.656;37.702;2022-09-29T14:01:37;59.90;;;18.95;;
62740;SDS011;48790;55.656;37.702;2022-09-29T14:06:48;46.75;;;18.38;;
62740;SDS011;48790;55.656;37.702;2022-09-29T14:09:15;42.45;;;17.33;;
62740;SDS011;48790;55.656;37.702;2022-09-29T14:11:43;53.63;;;16.58;;
62740;SDS011;48790;55.656;37.702;2022-09-29T14:14:19;39.05;;;15.77;;
62740;SDS011;48790;55.656;37.702;2022-09-29T14:22:00;36.40;;;16.02;;
62740;SDS011;48790;55.656;37.702;2022-09-29T14:30:10;38.85;;;17.77;;
62740;SDS011;48790;55.656;37.702;2022-09-29T14:37:59;41.42;;;17.33;;
62740;SDS011;48790;55.656;37.702;2022-09-29T14:40:26;40.63;;;17.95;;
62740;SDS011;48790;55.656;37.702;2022-09-29T14:51:34;39.55;;;17.10;;
62740;SDS011;48790;55.656;37.702;2022-09-29T14:54:25;36.53;;;16.15;;
62740;SDS011;48790;55.656;37.702;2022-09-29T14:57:16;40.45;;;18.15;;
62740;SDS011;48790;55.656;37.702;2022-09-29T15:00:48;39.70;;;17.17;;
62740;SDS011;48790;55.656;37.702;2022-09-29T15:02:43;38.78;;;17.40;;
62740;SDS011;48790;55.656;37.702;2022-09-29T15:05:14;46.45;;;18.88;;
62740;SDS011;48790;55.656;37.702;2022-09-29T15:07:47;39.80;;;17.17;;
62740;SDS011;48790;55.656;37.702;2022-09-29T15:10:47;43.65;;;17.48;;
62740;SDS011;48790;55.656;37.702;2022-09-29T15:13:14;40.55;;;16.92;;
62740;SDS011;48790;55.656;37.702;2022-09-29T15:15:45;46.55;;;18.40;;
62740;SDS011;48790;55.656;37.702;2022-09-29T15:20:48;47.53;;;19.30;;
62740;SDS011;48790;55.656;37.702;2022-09-29T15:23:33;46.97;;;20.75;;
62740;SDS011;48790;55.656;37.702;2022-09-29T15:26:01;52.75;;;19.88;;
62740;SDS011;48790;55.656;37.702;2022-09-29T15:31:02;51.92;;;20.60;;
62740;SDS011;48790;55.656;37.702;2022-09-29T15:33:29;48.22;;;19.40;;
62740;SDS011;48790;55.656;37.702;2022-09-29T15:40:54;59.85;;;21.92;;
62740;SDS011;48790;55.656;37.702;2022-09-29T15:43:22;56.20;;;21.45;;
62740;SDS011;48790;55.656;37.702;2022-09-29T15:45:51;59.58;;;21.98;;
62740;SDS011;48790;55.656;37.702;2022-09-29T15:48:17;59.83;;;20.60;;
62740;SDS011;48790;55.656;37.702;2022-09-29T15:50:44;63.92;;;21.30;;
62740;SDS011;48790;55.656;37.702;2022-09-29T15:53:09;63.25;;;22.20;;
62740;SDS011;48790;55.656;37.702;2022-09-29T15:55:35;59.17;;;20.33;;
62740;SDS011;48790;55.656;37.702;2022-09-29T15:58:02;60.95;;;22.15;;
62740;SDS011;48790;55.656;37.702;2022-09-29T16:00:47;57.67;;;21.60;;
62740;SDS011;48790;55.656;37.702;2022-09-29T16:03:15;64.15;;;22.38;;
62740;SDS011;48790;55.656;37.702;2022-09-29T16:05:55;55.28;;;22.70;;
62740;SDS011;48790;55.656;37.702;2022-09-29T16:08:22;49.33;;;21.27;;
62740;SDS011;48790;55.656;37.702;2022-09-29T16:10:52;60.35;;;21.75;;
62740;SDS011;48790;55.656;37.702;2022-09-29T16:13:21;55.28;;;22.10;;
62740;SDS011;48790;55.656;37.702;2022-09-29T16:15:50;55.45;;;23.30;;
62740;SDS011;48790;55.656;37.702;2022-09-29T16:21:05;58.95;;;23.83;;
62740;SDS011;48790;55.656;37.702;2022-09-29T16:26:17;79.25;;;28.85;;
62740;SDS011;48790;55.656;37.702;2022-09-29T16:31:28;129.40;;;54.45;;
62740;SDS011;48790;55.656;37.702;2022-09-29T16:33:56;95.10;;;38.72;;
62740;SDS011;48790;55.656;37.702;2022-09-29T16:36:25;71.78;;;29.38;;
62740;SDS011;48790;55.656;37.702;2022-09-29T16:38:51;69.30;;;27.90;;
62740;SDS011;48790;55.656;37.702;2022-09-29T16:41:25;75.63;;;31.08;;
62740;SDS011;48790;55.656;37.702;2022-09-29T16:44:03;77.38;;;28.88;;
62740;SDS011;48790;55.656;37.702;2022-09-29T16:46:32;68.40;;;30.50;;
62740;SDS011;48790;55.656;37.702;2022-09-29T16:48:59;71.55;;;28.70;;
62740;SDS011;48790;55.656;37.702;2022-09-29T16:51:24;69.55;;;27.27;;
62740;SDS011;48790;55.656;37.702;2022-09-29T16:53:51;71.18;;;28.65;;
62740;SDS011;48790;55.656;37.702;2022-09-29T16:56:26;82.45;;;29.58;;
62740;SDS011;48790;55.656;37.702;2022-09-29T17:01:28;81.55;;;33.00;;
62740;SDS011;48790;55.656;37.702;2022-09-29T17:03:54;74.50;;;29.35;;
62740;SDS011;48790;55.656;37.702;2022-09-29T17:06:21;70.03;;;28.05;;
62740;SDS011;48790;55.656;37.702;2022-09-29T17:08:47;71.22;;;28.40;;
62740;SDS011;48790;55.656;37.702;2022-09-29T17:11:12;68.13;;;28.05;;
62740;SDS011;48790;55.656;37.702;2022-09-29T17:13:38;70.57;;;28.02;;
62740;SDS011;48790;55.656;37.702;2022-09-29T17:16:06;74.47;;;28.80;;
62740;SDS011;48790;55.656;37.702;2022-09-29T17:18:34;66.53;;;27.13;;
62740;SDS011;48790;55.656;37.702;2022-09-29T17:21:00;69.95;;;28.52;;
62740;SDS011;48790;55.656;37.702;2022-09-29T17:23:25;68.55;;;27.92;;
62740;SDS011;48790;55.656;37.702;2022-09-29T17:25:51;69.40;;;29.63;;
62740;SDS011;48790;55.656;37.702;2022-09-29T17:28:37;68.43;;;27.48;;
62740;SDS011;48790;55.656;37.702;2022-09-29T17:31:03;72.05;;;29.10;;
62740;SDS011;48790;55.656;37.702;2022-09-29T17:33:30;74.10;;;27.48;;
62740;SDS011;48790;55.656;37.702;2022-09-29T17:35:56;74.45;;;28.65;;
62740;SDS011;48790;55.656;37.702;2022-09-29T17:38:24;65.47;;;27.52;;
62740;SDS011;48790;55.656;37.702;2022-09-29T17:40:56;60.10;;;26.63;;
62740;SDS011;48790;55.656;37.702;2022-09-29T17:43:25;76.65;;;29.95;;
62740;SDS011;48790;55.656;37.702;2022-09-29T17:45:51;80.53;;;30.27;;
62740;SDS011;48790;55.656;37.702;2022-09-29T17:48:19;68.25;;;28.10;;
62740;SDS011;48790;55.656;37.702;2022-09-29T17:50:45;70.53;;;27.75;;